Terminal Aerodrome Forecast
Issued by NWS Pittsburgh, PA

Current Version | Previous Version | Graphics & Text | Print | Product List | Glossary On
Versions: 1 2 3 4 5 6 7 8 9 10 11 12 13 14 15 16 17 18 19 20 21 22 23 24 25 26 27 28 29 30 31 32
000
FTUS41 KPBZ 240111 AAA
TAFPIT
TAF AMD
KPIT 240111Z 2401/2506 31004KT P6SM BKN250
     FM240700 00000KT 4SM BR SCT150
     FM241200 VRB03KT P6SM FEW250
     FM241800 22005KT P6SM BKN050 PROB30 2420/2424 4SM -TSRA
      BKN040CB
     FM250200 21003KT P6SM FEW050 SCT250=

USA.gov is the U.S. government's official web portal to all federal, state and local government web resources and services.